Time;durP1;ratioP1;P1;durP2;ratioP2;P2;SDS_P1;SDS_P2;PMS_P1;PMS_P2;Temp;Humidity;BMP_temperature;BMP_pressure;BME280_temperature;BME280_humidity;BME280_pressure;Samples;Min_cycle;Max_cycle;Signal;HPM_P1;HPM_P2
2024/04/12 00:01:48;;;;;;;14.20;7.90;;;13.80;99.90;;;;;;5494752;26;19994;-77
2024/04/12 00:04:20;;;;;;;13.82;7.22;;;13.80;99.90;;;;;;5494406;26;19998;-77
2024/04/12 00:06:52;;;;;;;12.13;6.57;;;13.80;99.90;;;;;;5492334;26;20329;-77
2024/04/12 00:09:18;;;;;;;13.40;6.88;;;13.90;99.90;;;;;;5494495;26;20357;-77
2024/04/12 00:11:53;;;;;;;10.52;6.10;;;13.90;99.90;;;;;;5494293;26;20001;-78
2024/04/12 00:14:21;;;;;;;16.85;6.05;;;13.90;99.90;;;;;;5492095;26;20004;-77
2024/04/12 00:16:50;;;;;;;11.45;5.57;;;13.90;99.90;;;;;;5494491;26;20109;-78
2024/04/12 00:19:19;;;;;;;11.30;5.53;;;13.80;99.90;;;;;;5494419;26;19994;-77
2024/04/12 00:21:47;;;;;;;12.32;5.75;;;13.80;99.90;;;;;;5466593;26;20003;-77
2024/04/12 00:24:13;;;;;;;10.25;4.97;;;13.80;99.90;;;;;;5456387;26;20015;-77
2024/04/12 00:26:43;;;;;;;9.60;5.18;;;13.80;99.90;;;;;;5455975;26;20001;-77
2024/04/12 00:29:25;;;;;;;8.95;5.32;;;13.80;99.90;;;;;;5457157;26;20002;-77
2024/04/12 00:31:54;;;;;;;11.43;5.22;;;13.80;99.90;;;;;;5457789;26;19999;-77
2024/04/12 00:34:26;;;;;;;10.32;4.80;;;13.80;99.90;;;;;;5457536;26;19995;-77
2024/04/12 00:36:54;;;;;;;10.13;4.55;;;13.80;99.90;;;;;;5457009;26;20006;-77
2024/04/12 00:39:35;;;;;;;7.43;3.92;;;13.80;99.90;;;;;;5456762;26;20036;-77
2024/04/12 00:42:07;;;;;;;6.85;3.72;;;13.80;99.90;;;;;;5458509;26;20009;-77
2024/04/12 00:44:34;;;;;;;9.98;4.97;;;13.70;99.90;;;;;;5455388;26;20001;-77
2024/04/12 00:47:04;;;;;;;8.05;3.80;;;13.70;99.90;;;;;;5456999;26;20010;-77
2024/04/12 00:49:30;;;;;;;7.65;3.97;;;13.70;99.90;;;;;;5457901;26;20010;-77
2024/04/12 00:52:02;;;;;;;8.27;3.88;;;13.70;99.90;;;;;;5457612;26;20515;-77
2024/04/12 00:54:29;;;;;;;10.38;3.92;;;13.70;99.90;;;;;;5457754;26;20068;-77
2024/04/12 00:56:56;;;;;;;10.98;4.38;;;13.70;99.90;;;;;;5457999;26;20007;-77
2024/04/12 00:59:23;;;;;;;9.40;4.63;;;13.70;99.90;;;;;;5457567;26;20048;-77
2024/04/12 01:01:49;;;;;;;7.43;4.07;;;13.60;99.90;;;;;;5456883;26;19995;-77
2024/04/12 01:04:20;;;;;;;6.13;3.70;;;13.70;99.90;;;;;;5457588;26;20062;-77
2024/04/12 01:06:45;;;;;;;7.78;3.80;;;13.70;99.90;;;;;;5457146;26;20002;-77
2024/04/12 01:09:12;;;;;;;7.18;3.78;;;13.70;99.90;;;;;;5456685;26;19998;-77
2024/04/12 01:11:38;;;;;;;5.97;3.55;;;13.60;99.90;;;;;;5454580;26;20059;-77
2024/04/12 01:14:08;;;;;;;7.50;3.45;;;13.60;99.90;;;;;;5455577;26;20388;-77
2024/04/12 01:16:36;;;;;;;5.40;3.50;;;13.50;99.90;;;;;;5455232;26;20015;-77
2024/04/12 01:19:02;;;;;;;8.40;3.63;;;13.50;99.90;;;;;;5455679;26;19994;-77
2024/04/12 01:21:29;;;;;;;5.97;3.35;;;13.50;99.90;;;;;;5455330;26;19999;-77
2024/04/12 01:23:55;;;;;;;6.22;3.58;;;;;;;;;;5457200;26;20022;-77
2024/04/12 01:26:23;;;;;;;5.82;3.00;;;13.50;99.90;;;;;;5457264;26;19998;-77
2024/04/12 01:28:51;;;;;;;6.80;3.23;;;13.50;99.90;;;;;;5455470;26;19991;-77
2024/04/12 01:31:17;;;;;;;8.98;3.15;;;11.80;99.90;;;;;;5456612;26;20228;-77
2024/04/12 01:33:50;;;;;;;5.72;2.78;;;13.60;99.90;;;;;;5454816;26;19991;-77
2024/04/12 01:36:21;;;;;;;5.03;2.50;;;13.50;99.90;;;;;;5456686;26;19995;-77
2024/04/12 01:39:11;;;;;;;5.00;2.67;;;13.50;99.90;;;;;;5455362;26;20022;-77
2024/04/12 01:41:35;;;;;;;6.50;3.08;;;13.60;99.90;;;;;;5456182;26;20044;-77
2024/04/12 01:44:06;;;;;;;5.45;2.53;;;13.50;99.90;;;;;;5456296;26;20442;-77
2024/04/12 01:46:39;;;;;;;6.30;3.22;;;13.50;99.90;;;;;;5456128;26;20326;-77
2024/04/12 01:49:10;;;;;;;5.07;2.72;;;13.50;99.90;;;;;;5454826;26;19995;-77
2024/04/12 01:51:36;;;;;;;9.88;4.15;;;13.50;99.90;;;;;;5457098;26;20010;-77
2024/04/12 01:54:13;;;;;;;5.63;3.00;;;13.40;99.90;;;;;;5455271;26;20007;-77
2024/04/12 01:56:50;;;;;;;4.88;2.55;;;13.40;99.90;;;;;;5453815;26;20006;-77
2024/04/12 01:59:21;;;;;;;9.35;4.07;;;13.40;99.90;;;;;;5455258;26;20071;-77
2024/04/12 02:01:48;;;;;;;7.38;3.70;;;13.40;99.90;;;;;;5455657;26;20035;-77
2024/04/12 02:04:18;;;;;;;6.53;2.97;;;13.50;99.90;;;;;;5455337;26;20045;-77
2024/04/12 02:06:44;;;;;;;6.90;3.83;;;13.50;99.90;;;;;;5453391;26;19995;-77
2024/04/12 02:09:14;;;;;;;5.75;2.92;;;13.40;99.90;;;;;;5454260;26;20023;-77
2024/04/12 02:11:41;;;;;;;6.57;2.90;;;13.50;99.90;;;;;;5455983;26;20425;-77
2024/04/12 02:14:07;;;;;;;8.27;3.67;;;13.40;99.90;;;;;;5455774;26;19998;-77
2024/04/12 02:16:37;;;;;;;7.93;3.25;;;13.50;99.90;;;;;;5453926;26;20067;-77
2024/04/12 02:19:03;;;;;;;7.53;2.83;;;13.40;99.90;;;;;;5454998;26;20005;-77
2024/04/12 02:21:31;;;;;;;7.20;3.03;;;13.40;99.90;;;;;;5455084;26;19999;-77
2024/04/12 02:24:02;;;;;;;5.13;2.38;;;13.40;99.90;;;;;;5453602;26;19991;-77
2024/04/12 02:26:29;;;;;;;6.78;2.88;;;13.40;99.90;;;;;;5453038;26;20053;-77
2024/04/12 02:28:59;;;;;;;6.15;2.65;;;13.40;99.90;;;;;;5455656;26;20023;-77
2024/04/12 02:31:24;;;;;;;7.10;2.95;;;13.40;99.90;;;;;;5454977;26;20005;-77
2024/04/12 02:33:54;;;;;;;4.90;2.33;;;13.40;99.90;;;;;;5453550;26;19991;-77
2024/04/12 02:36:21;;;;;;;8.82;2.22;;;13.40;99.90;;;;;;5453343;26;19999;-77
2024/04/12 02:38:50;;;;;;;3.15;1.52;;;13.50;99.90;;;;;;5452760;26;19999;-77
2024/04/12 02:41:17;;;;;;;4.22;1.90;;;13.50;99.90;;;;;;5455259;26;20003;-77
2024/04/12 02:43:55;;;;;;;4.28;2.10;;;13.50;99.90;;;;;;5455862;26;20043;-77
2024/04/12 02:46:24;;;;;;;3.00;1.50;;;13.50;99.90;;;;;;5453974;26;19995;-77
2024/04/12 02:48:51;;;;;;;2.22;1.13;;;13.50;99.90;;;;;;5457148;26;19998;-77
2024/04/12 02:51:18;;;;;;;3.85;1.60;;;13.40;99.90;;;;;;5457433;26;20005;-78
2024/04/12 02:53:45;;;;;;;4.20;1.25;;;13.40;99.90;;;;;;5457894;26;20059;-77
2024/04/12 02:56:14;;;;;;;2.83;1.27;;;13.40;99.90;;;;;;5459369;26;20006;-77
2024/04/12 02:58:44;;;;;;;5.22;1.90;;;13.40;99.90;;;;;;5457178;26;19995;-77
2024/04/12 03:01:16;;;;;;;2.88;1.15;;;13.40;99.90;;;;;;5458590;26;20032;-77
2024/04/12 03:03:47;;;;;;;3.28;1.27;;;13.40;99.90;;;;;;5458516;26;19999;-77
2024/04/12 03:06:13;;;;;;;5.30;1.63;;;13.40;99.90;;;;;;5458478;26;19999;-77
2024/04/12 03:08:44;;;;;;;3.53;1.52;;;13.50;99.90;;;;;;5458273;26;20013;-77
2024/04/12 03:11:25;;;;;;;3.72;1.38;;;13.40;99.90;;;;;;5456627;26;20458;-77
2024/04/12 03:13:58;;;;;;;3.00;0.90;;;13.40;99.90;;;;;;5457828;26;19999;-77
2024/04/12 03:16:24;;;;;;;2.90;1.23;;;13.40;99.90;;;;;;5456301;26;20367;-77
2024/04/12 03:18:52;;;;;;;3.78;1.42;;;13.40;99.90;;;;;;5459208;26;19995;-77
2024/04/12 03:21:22;;;;;;;2.72;1.40;;;13.40;99.90;;;;;;5456642;26;20003;-77
2024/04/12 03:23:48;;;;;;;3.67;1.52;;;13.40;99.90;;;;;;5458260;26;20027;-77
2024/04/12 03:26:15;;;;;;;3.33;1.60;;;13.40;99.90;;;;;;5458385;26;20031;-77
2024/04/12 03:28:41;;;;;;;3.13;1.30;;;13.40;99.90;;;;;;5457738;26;20006;-77
2024/04/12 03:31:12;;;;;;;6.60;1.10;;;13.30;99.90;;;;;;5457527;26;20006;-77
2024/04/12 03:33:42;;;;;;;4.10;1.50;;;13.30;99.90;;;;;;5456327;26;20538;-77
2024/04/12 03:36:28;;;;;;;3.13;1.40;;;13.40;99.90;;;;;;5455863;26;20025;-77
2024/04/12 03:41:46;;;;;;;3.30;1.52;;;13.40;99.90;;;;;;5458662;26;20005;-77
2024/04/12 03:44:13;;;;;;;5.32;1.50;;;13.40;99.90;;;;;;5458123;26;20144;-77
2024/04/12 03:46:40;;;;;;;3.30;1.70;;;13.40;99.90;;;;;;5455936;26;20339;-77
2024/04/12 03:49:13;;;;;;;2.88;1.40;;;13.40;99.90;;;;;;5457671;26;20038;-77
2024/04/12 03:51:46;;;;;;;3.70;1.38;;;13.40;99.90;;;;;;5458333;26;20010;-77
2024/04/12 03:54:21;;;;;;;2.78;0.98;;;13.40;99.90;;;;;;5458295;26;19995;-77
2024/04/12 03:56:50;;;;;;;3.50;1.90;;;;;;;;;;5455691;26;20002;-77
2024/04/12 03:59:21;;;;;;;2.97;1.55;;;13.40;99.90;;;;;;5455440;26;20407;-77
2024/04/12 04:01:47;;;;;;;4.32;2.35;;;13.40;99.90;;;;;;5457554;26;20027;-77
2024/04/12 04:04:17;;;;;;;2.38;0.98;;;13.30;99.90;;;;;;5457003;26;20002;-77
2024/04/12 04:06:56;;;;;;;2.78;1.42;;;13.40;99.90;;;;;;5456799;26;19999;-77
2024/04/12 04:09:22;;;;;;;;;;;13.40;99.90;;;;;;5455976;26;19995;-77
2024/04/12 04:11:48;;;;;;;4.00;1.30;;;13.40;99.90;;;;;;5457404;26;19936;-77
2024/04/12 04:14:19;;;;;;;2.92;1.58;;;13.50;99.90;;;;;;5457310;26;20461;-77
2024/04/12 04:16:49;;;;;;;2.40;1.15;;;13.40;99.90;;;;;;5456692;26;20027;-77
2024/04/12 04:19:35;;;;;;;2.42;1.27;;;13.40;99.90;;;;;;5457067;26;20022;-77
2024/04/12 04:22:21;;;;;;;3.17;1.10;;;13.40;99.90;;;;;;5455188;26;19987;-77
2024/04/12 04:24:51;;;;;;;6.65;2.08;;;13.40;99.90;;;;;;5455072;26;19994;-77
2024/04/12 04:27:21;;;;;;;8.60;2.50;;;13.40;99.90;;;;;;5454818;26;19991;-77
2024/04/12 04:29:50;;;;;;;5.03;1.70;;;13.40;99.90;;;;;;5455416;26;20036;-77
2024/04/12 04:32:16;;;;;;;4.55;1.52;;;13.40;99.90;;;;;;5455581;26;20002;-77
2024/04/12 04:34:44;;;;;;;5.68;1.17;;;13.40;99.90;;;;;;5455532;26;20439;-77
2024/04/12 04:37:09;;;;;;;9.25;1.90;;;13.40;99.90;;;;;;5455044;26;19995;-77
2024/04/12 04:39:35;;;;;;;3.60;1.58;;;13.40;99.90;;;;;;5454989;26;20334;-77
2024/04/12 04:42:01;;;;;;;5.40;2.50;;;13.40;99.90;;;;;;5455221;26;20347;-77
2024/04/12 04:44:26;;;;;;;3.85;2.05;;;13.40;99.90;;;;;;5454896;26;20006;-77
2024/04/12 04:46:53;;;;;;;6.88;2.30;;;13.30;99.90;;;;;;5457276;26;20044;-77
2024/04/12 04:49:23;;;;;;;4.18;1.75;;;13.30;99.90;;;;;;5454970;26;20146;-77
2024/04/12 04:51:49;;;;;;;5.88;2.00;;;13.30;99.90;;;;;;5455449;26;19999;-77
2024/04/12 04:54:16;;;;;;;4.40;1.65;;;13.40;99.90;;;;;;5457242;26;20478;-76
2024/04/12 04:56:44;;;;;;;6.47;2.17;;;13.40;99.90;;;;;;5451715;26;20002;-76
2024/04/12 04:59:16;;;;;;;7.13;2.17;;;13.30;99.90;;;;;;5451758;26;20468;-76
2024/04/12 05:01:48;;;;;;;4.95;2.58;;;13.30;99.90;;;;;;5453938;26;20072;-76
2024/04/12 05:04:15;;;;;;;5.35;2.40;;;13.30;99.90;;;;;;5453565;26;20368;-76
2024/04/12 05:06:41;;;;;;;7.18;3.08;;;13.30;99.90;;;;;;5451602;26;20027;-76
2024/04/12 05:09:09;;;;;;;8.63;3.03;;;13.20;99.90;;;;;;5451020;26;20071;-76
2024/04/12 05:11:38;;;;;;;6.75;2.92;;;13.30;99.90;;;;;;5453256;26;19998;-76
2024/04/12 05:14:13;;;;;;;6.13;3.00;;;13.30;99.90;;;;;;5453287;26;19995;-76
2024/04/12 05:16:43;;;;;;;8.95;3.67;;;13.30;99.90;;;;;;5451427;26;20366;-76
2024/04/12 05:19:09;;;;;;;6.35;3.05;;;13.30;99.90;;;;;;5451303;26;20438;-76
2024/04/12 05:21:36;;;;;;;6.93;3.15;;;13.40;99.90;;;;;;5453045;26;20009;-76
2024/04/12 05:24:09;;;;;;;5.60;2.90;;;13.40;99.90;;;;;;5451820;26;19998;-76
2024/04/12 05:26:45;;;;;;;6.65;3.30;;;13.50;99.90;;;;;;5453006;26;20343;-76
2024/04/12 05:29:11;;;;;;;7.72;3.63;;;13.50;99.90;;;;;;5453659;26;20009;-76
2024/04/12 05:31:36;;;;;;;5.57;3.50;;;13.50;99.90;;;;;;5453606;26;20038;-76
2024/04/12 05:34:04;;;;;;;9.88;4.40;;;13.50;99.90;;;;;;5453378;26;19994;-76
2024/04/12 05:36:32;;;;;;;5.07;2.92;;;13.50;99.90;;;;;;5451159;26;19995;-76
2024/04/12 05:39:00;;;;;;;7.32;3.20;;;13.50;99.90;;;;;;5453223;26;19995;-76
2024/04/12 05:41:32;;;;;;;7.47;3.10;;;13.60;99.90;;;;;;5453019;26;20006;-76
2024/04/12 05:43:57;;;;;;;7.78;4.30;;;13.60;99.90;;;;;;5451478;26;19994;-76
2024/04/12 05:46:23;;;;;;;11.65;4.85;;;13.60;99.90;;;;;;5452948;26;20338;-76
2024/04/12 05:48:48;;;;;;;7.30;3.70;;;13.60;99.90;;;;;;5452822;26;20064;-76
2024/04/12 05:51:14;;;;;;;7.97;3.30;;;13.70;99.90;;;;;;5452696;26;20011;-76
2024/04/12 05:53:40;;;;;;;9.43;4.47;;;13.70;99.90;;;;;;5452959;26;19994;-76
2024/04/12 05:56:21;;;;;;;8.85;4.57;;;13.70;99.90;;;;;;5450863;26;19990;-76
2024/04/12 05:58:47;;;;;;;7.55;4.28;;;13.70;99.90;;;;;;5453110;26;20011;-76
2024/04/12 06:01:12;;;;;;;8.80;4.03;;;13.70;99.90;;;;;;5452641;26;20313;-76
2024/04/12 06:03:42;;;;;;;8.50;4.15;;;13.70;99.90;;;;;;5452384;26;20447;-76
2024/04/12 06:06:08;;;;;;;7.15;3.50;;;13.70;99.90;;;;;;5450690;26;19995;-76
2024/04/12 06:08:37;;;;;;;6.28;3.67;;;13.70;99.90;;;;;;5450414;26;20023;-76
2024/04/12 06:11:08;;;;;;;;;;;13.70;99.90;;;;;;5453050;26;20011;-76
2024/04/12 06:13:35;;;;;;;7.65;4.05;;;13.80;99.90;;;;;;5452563;26;20372;-76
2024/04/12 06:16:01;;;;;;;6.50;3.60;;;13.90;99.90;;;;;;5452521;26;20064;-76
2024/04/12 06:18:28;;;;;;;8.32;3.55;;;13.90;99.90;;;;;;5452514;26;20006;-76
2024/04/12 06:20:55;;;;;;;8.43;3.92;;;13.90;99.90;;;;;;5453372;26;20035;-76
2024/04/12 06:23:21;;;;;;;14.90;3.92;;;14.00;99.90;;;;;;5455903;26;19998;-76
2024/04/12 06:25:49;;;;;;;10.10;3.63;;;14.00;99.90;;;;;;5456048;26;20433;-76
2024/04/12 06:28:16;;;;;;;7.50;3.60;;;14.10;99.90;;;;;;5456006;26;20438;-76
2024/04/12 06:30:46;;;;;;;6.85;3.88;;;14.10;99.90;;;;;;5455738;26;19990;-76
2024/04/12 06:33:12;;;;;;;8.02;3.40;;;14.20;99.90;;;;;;5454242;26;20006;-76
2024/04/12 06:35:40;;;;;;;6.32;3.08;;;14.20;99.90;;;;;;5455618;26;20429;-76
2024/04/12 06:38:09;;;;;;;8.10;3.77;;;14.30;99.90;;;;;;5455565;26;20106;-76
2024/04/12 06:40:37;;;;;;;10.05;3.60;;;14.30;99.90;;;;;;5455377;26;20067;-76
2024/04/12 06:43:06;;;;;;;9.65;4.05;;;14.30;99.90;;;;;;5453714;26;20005;-76
2024/04/12 06:45:44;;;;;;;8.23;3.65;;;14.30;99.90;;;;;;5455456;26;19995;-76
2024/04/12 06:48:19;;;;;;;9.45;2.92;;;14.30;99.90;;;;;;5455467;26;20009;-76
2024/04/12 06:50:55;;;;;;;8.95;3.45;;;14.30;99.90;;;;;;5456170;26;19994;-76
2024/04/12 06:53:22;;;;;;;8.13;3.75;;;14.40;99.90;;;;;;5455433;26;20006;-76
2024/04/12 06:55:57;;;;;;;7.25;3.38;;;14.50;99.90;;;;;;5455674;26;20065;-76
2024/04/12 06:58:24;;;;;;;5.55;3.33;;;14.50;99.90;;;;;;5455624;26;20052;-76
2024/04/12 07:00:57;;;;;;;7.78;3.28;;;14.50;99.90;;;;;;5455469;26;20009;-76
2024/04/12 07:03:23;;;;;;;8.70;2.75;;;14.60;99.90;;;;;;5455468;26;20002;-76
2024/04/12 07:05:49;;;;;;;11.48;3.53;;;14.70;99.90;;;;;;5455448;26;19994;-75
2024/04/12 07:08:18;;;;;;;11.27;3.85;;;14.80;99.90;;;;;;5453382;26;20061;-76
2024/04/12 07:10:48;;;;;;;6.45;3.08;;;14.70;99.90;;;;;;5455508;26;19999;-76
2024/04/12 07:13:21;;;;;;;12.07;3.67;;;;;;;;;;5455401;26;20442;-76
2024/04/12 07:15:49;;;;;;;9.13;3.50;;;14.70;99.90;;;;;;5455125;26;20009;-76
2024/04/12 07:18:16;;;;;;;6.82;2.80;;;14.80;99.90;;;;;;5453556;26;20027;-76
2024/04/12 07:20:44;;;;;;;6.32;2.88;;;14.80;99.90;;;;;;5456093;26;20072;-76
2024/04/12 07:23:16;;;;;;;8.57;3.25;;;14.80;99.90;;;;;;5455504;26;20045;-76
2024/04/12 07:25:47;;;;;;;11.90;3.20;;;14.80;99.90;;;;;;5455186;26;19998;-77
2024/04/12 07:28:14;;;;;;;15.48;3.47;;;14.90;99.90;;;;;;5453138;26;19998;-76
2024/04/12 07:30:44;;;;;;;14.48;2.75;;;14.90;99.90;;;;;;5455085;26;20168;-76
2024/04/12 07:33:13;;;;;;;6.95;2.50;;;14.90;99.90;;;;;;5454367;26;20117;-76
2024/04/12 07:35:39;;;;;;;7.78;2.30;;;15.00;99.90;;;;;;5455273;26;19995;-75
2024/04/12 07:38:07;;;;;;;4.93;2.00;;;15.00;99.90;;;;;;5455153;26;20005;-76
2024/04/12 07:40:39;;;;;;;6.90;1.83;;;15.00;99.90;;;;;;5455643;26;20006;-74
2024/04/12 07:43:09;;;;;;;5.55;1.20;;;15.10;99.90;;;;;;5455152;26;20071;-76
2024/04/12 07:45:41;;;;;;;7.28;2.28;;;15.20;99.90;;;;;;5453048;26;20027;-76
2024/04/12 07:50:53;;;;;;;10.73;2.28;;;15.20;99.90;;;;;;5455908;26;19998;-76
2024/04/12 07:53:22;;;;;;;7.68;2.97;;;15.40;99.90;;;;;;5452953;26;19995;-75
2024/04/12 07:55:58;;;;;;;;;;;15.50;99.90;;;;;;5453291;26;19999;-75
2024/04/12 07:58:26;;;;;;;5.53;2.10;;;15.70;99.90;;;;;;5455108;26;19932;-75
2024/04/12 08:01:09;;;;;;;9.07;2.55;;;15.90;99.90;;;;;;5454442;26;20009;-75
2024/04/12 08:03:38;;;;;;;6.97;2.00;;;15.90;99.90;;;;;;5454903;26;19998;-75
2024/04/12 08:06:04;;;;;;;6.35;1.73;;;15.90;99.90;;;;;;5454444;26;20006;-75
2024/04/12 08:08:44;;;;;;;5.13;2.28;;;15.90;99.90;;;;;;5454581;26;19999;-75
2024/04/12 08:14:05;;;;;;;8.93;1.75;;;16.00;99.90;;;;;;5455737;26;20010;-75
2024/04/12 08:16:35;;;;;;;5.75;1.52;;;16.20;99.90;;;;;;5455047;26;19994;-75
2024/04/12 08:19:02;;;;;;;7.38;1.88;;;16.20;99.90;;;;;;5454789;26;20382;-75
2024/04/12 08:21:31;;;;;;;9.07;2.03;;;16.20;99.90;;;;;;5453672;26;20010;-75
2024/04/12 08:23:57;;;;;;;8.15;1.58;;;16.20;99.90;;;;;;5452224;26;20007;-75
2024/04/12 08:26:27;;;;;;;7.68;1.77;;;16.30;99.90;;;;;;5454222;26;20530;-75
2024/04/12 08:28:53;;;;;;;7.85;2.22;;;16.30;99.90;;;;;;5454383;26;19995;-75
2024/04/12 08:31:23;;;;;;;11.60;2.50;;;16.50;99.90;;;;;;5453636;26;20167;-75
2024/04/12 08:33:50;;;;;;;4.13;1.63;;;16.60;99.90;;;;;;5452019;26;20066;-75
2024/04/12 08:36:16;;;;;;;7.65;1.38;;;16.70;99.90;;;;;;5451898;26;20063;-75
2024/04/12 08:38:54;;;;;;;5.45;1.95;;;16.70;99.90;;;;;;5452139;26;19991;-75
2024/04/12 08:41:24;;;;;;;5.55;1.00;;;16.70;99.90;;;;;;5454623;26;20426;-75
2024/04/12 08:43:58;;;;;;;7.43;1.65;;;16.70;99.90;;;;;;5452234;26;19999;-75
2024/04/12 08:46:33;;;;;;;9.82;2.05;;;16.60;99.90;;;;;;5451442;26;20511;-75
2024/04/12 08:48:59;;;;;;;6.85;1.67;;;16.50;99.90;;;;;;5453917;26;20023;-76
2024/04/12 08:51:27;;;;;;;6.65;2.10;;;16.60;99.90;;;;;;5453059;26;20001;-76
2024/04/12 08:53:56;;;;;;;8.55;1.50;;;16.60;99.90;;;;;;5452121;26;20022;-77
2024/04/12 08:56:28;;;;;;;6.18;1.63;;;16.70;99.90;;;;;;5453896;26;20007;-78
2024/04/12 08:58:59;;;;;;;3.05;1.13;;;16.90;99.90;;;;;;5452487;26;20436;-78
2024/04/12 09:01:26;;;;;;;4.50;1.50;;;17.00;99.90;;;;;;5455835;26;19995;-78
2024/04/12 09:04:03;;;;;;;7.25;1.70;;;17.20;99.90;;;;;;5455395;26;20020;-80
2024/04/12 09:06:34;;;;;;;4.30;1.13;;;17.30;99.90;;;;;;5453280;26;19998;-77
2024/04/12 09:09:01;;;;;;;3.80;1.15;;;17.20;99.90;;;;;;5453105;26;19999;-78
2024/04/12 09:11:27;;;;;;;5.20;1.13;;;17.30;99.90;;;;;;5452988;26;20006;-78
2024/04/12 09:13:53;;;;;;;4.53;0.80;;;17.20;99.90;;;;;;5455096;26;19999;-78
2024/04/12 09:16:19;;;;;;;5.32;1.13;;;17.30;99.90;;;;;;5451599;26;20045;-78
2024/04/12 09:18:51;;;;;;;3.42;0.98;;;17.50;99.90;;;;;;5454811;26;19999;-78
2024/04/12 09:21:24;;;;;;;5.28;1.00;;;17.70;99.90;;;;;;5452884;26;19999;-78
2024/04/12 09:23:56;;;;;;;4.25;0.80;;;17.80;99.90;;;;;;5454290;26;20326;-77
2024/04/12 09:26:22;;;;;;;5.35;1.15;;;17.70;99.90;;;;;;5454623;26;20006;-78
2024/04/12 09:28:49;;;;;;;4.05;0.77;;;17.80;99.90;;;;;;5454418;26;19999;-77
2024/04/12 09:34:22;;;;;;;3.95;0.50;;;17.90;99.90;;;;;;5455263;26;20102;-78
2024/04/12 09:37:01;;;;;;;3.28;0.32;;;17.90;99.90;;;;;;5454353;26;20006;-78
2024/04/12 09:42:17;;;;;;;5.10;0.80;;;18.10;99.90;;;;;;5455438;26;20049;-78
2024/04/12 09:44:48;;;;;;;6.05;0.88;;;18.20;99.90;;;;;;5453898;26;20002;-78
2024/04/12 10:37:28;;;;;;;2.42;0.10;;;19.90;99.90;;;;;;5460746;26;20040;-79
2024/04/12 10:40:04;;;;;;;2.80;0.10;;;19.50;99.90;;;;;;5461112;26;20048;-79
2024/04/12 10:42:33;;;;;;;0.25;0.00;;;19.80;99.90;;;;;;5458545;26;20342;-79
2024/04/12 10:45:01;;;;;;;2.55;0.00;;;20.00;99.90;;;;;;5460910;26;19999;-79
2024/04/12 10:47:28;;;;;;;1.75;0.32;;;19.90;99.90;;;;;;5457683;26;20011;-79
2024/04/12 10:49:57;;;;;;;0.63;0.00;;;20.00;99.90;;;;;;5460510;26;20028;-79
2024/04/12 10:52:28;;;;;;;1.95;0.00;;;20.10;99.90;;;;;;5460318;26;19995;-79
2024/04/12 10:55:08;;;;;;;0.93;0.00;;;19.90;99.90;;;;;;5460053;26;19999;-79
2024/04/12 10:57:34;;;;;;;1.00;0.20;;;19.80;99.90;;;;;;5457853;26;19998;-79
2024/04/12 11:00:01;;;;;;;3.70;0.25;;;19.80;99.90;;;;;;5460212;26;20003;-80
2024/04/12 11:02:27;;;;;;;1.13;0.10;;;19.90;99.90;;;;;;5456756;26;19999;-77
2024/04/12 11:05:06;;;;;;;0.10;0.00;;;20.00;99.90;;;;;;5454164;26;19999;-78
2024/04/12 11:07:32;;;;;;;0.05;0.00;;;19.80;99.90;;;;;;5454419;26;20070;-78
2024/04/12 11:09:58;;;;;;;1.65;0.00;;;19.80;99.90;;;;;;5455240;26;20006;-78
2024/04/12 11:12:30;;;;;;;1.80;0.00;;;19.60;99.90;;;;;;5455398;26;20005;-78
2024/04/12 11:31:30;;;;;;;0.90;0.00;;;;;;;;;;5462617;26;20006;-79
2024/04/12 11:33:57;;;;;;;2.53;0.00;;;20.60;99.90;;;;;;5463795;26;19995;-82
2024/04/12 11:36:23;;;;;;;1.23;0.00;;;20.50;99.90;;;;;;5465931;26;20007;-79
2024/04/12 11:38:53;;;;;;;0.47;0.00;;;20.60;99.90;;;;;;5453649;26;20010;-78
2024/04/12 11:41:23;;;;;;;0.00;0.00;;;20.60;99.90;;;;;;5455181;26;20331;-78
2024/04/12 11:43:51;;;;;;;1.00;0.00;;;20.40;99.90;;;;;;5455304;26;20023;-78
2024/04/12 11:46:19;;;;;;;0.45;0.00;;;20.60;99.90;;;;;;5453135;26;20404;-77
2024/04/12 11:48:45;;;;;;;0.93;0.00;;;21.00;99.90;;;;;;5453197;26;20002;-78
2024/04/12 11:51:15;;;;;;;2.70;0.00;;;21.00;99.90;;;;;;5455105;26;20391;-77
2024/04/12 11:53:43;;;;;;;1.38;0.00;;;21.30;99.90;;;;;;5454649;26;20031;-77
2024/04/12 11:56:12;;;;;;;0.52;0.10;;;21.20;99.90;;;;;;5452394;26;19991;-78
2024/04/12 11:58:43;;;;;;;1.80;0.00;;;21.20;99.90;;;;;;5453125;26;19990;-77
2024/04/12 12:01:09;;;;;;;1.60;0.20;;;21.10;99.90;;;;;;5453115;26;20002;-77
2024/04/12 12:03:34;;;;;;;2.30;0.00;;;21.10;99.90;;;;;;5454843;26;20076;-77
2024/04/12 12:06:06;;;;;;;2.00;0.13;;;21.30;99.90;;;;;;5454668;26;20002;-77
2024/04/12 12:08:40;;;;;;;3.38;0.00;;;21.40;99.90;;;;;;5454388;26;20007;-77
2024/04/12 12:11:07;;;;;;;0.10;0.00;;;21.40;99.90;;;;;;5454754;26;19997;-78
2024/04/12 12:13:33;;;;;;;1.08;0.05;;;21.50;99.90;;;;;;5453111;26;20327;-78
2024/04/12 12:15:59;;;;;;;0.32;0.00;;;21.50;99.90;;;;;;5452891;26;20063;-78
2024/04/12 12:18:27;;;;;;;1.17;0.00;;;21.60;99.90;;;;;;5453934;26;19994;-77
2024/04/12 12:20:53;;;;;;;0.50;0.05;;;21.30;99.90;;;;;;5452803;26;20010;-77
2024/04/12 12:23:20;;;;;;;0.05;0.00;;;21.30;99.90;;;;;;5452601;26;19998;-77
2024/04/12 12:25:50;;;;;;;0.60;0.00;;;21.20;99.90;;;;;;5454557;26;19998;-78
2024/04/12 12:28:17;;;;;;;1.27;0.00;;;21.20;99.90;;;;;;5454271;26;20007;-78
2024/04/12 12:30:47;;;;;;;0.60;0.00;;;21.30;99.90;;;;;;5452351;26;19995;-78
2024/04/12 12:33:13;;;;;;;0.47;0.00;;;21.60;99.90;;;;;;5452835;26;19995;-77
2024/04/12 12:35:42;;;;;;;0.82;0.00;;;21.70;99.90;;;;;;5454174;26;20006;-77
2024/04/12 12:38:11;;;;;;;1.75;0.22;;;21.70;99.90;;;;;;5454338;26;19998;-77
2024/04/12 12:40:38;;;;;;;2.72;0.00;;;21.60;99.90;;;;;;5452307;26;19995;-77
2024/04/12 12:43:05;;;;;;;0.17;0.00;;;21.70;99.90;;;;;;5452201;26;20012;-77
2024/04/12 12:45:33;;;;;;;1.95;0.00;;;21.80;99.90;;;;;;5452319;26;20330;-77
2024/04/12 12:47:59;;;;;;;0.77;0.05;;;21.80;99.90;;;;;;5452288;26;20006;-77
2024/04/12 12:50:25;;;;;;;0.75;0.05;;;21.90;99.90;;;;;;5454227;26;19999;-77
2024/04/12 12:52:51;;;;;;;0.75;0.10;;;21.90;99.90;;;;;;5456947;26;20006;-79
2024/04/12 12:55:22;;;;;;;1.35;0.00;;;22.00;99.90;;;;;;5459343;26;19995;-79
2024/04/12 12:57:49;;;;;;;1.10;0.28;;;22.20;99.90;;;;;;5457415;26;19991;-79
2024/04/12 13:00:22;;;;;;;0.98;0.00;;;22.10;99.90;;;;;;5456019;26;20005;-79
2024/04/12 13:02:51;;;;;;;1.92;0.13;;;22.30;99.90;;;;;;5456298;26;20335;-79
2024/04/12 13:05:18;;;;;;;0.57;0.00;;;22.30;99.90;;;;;;5460038;26;20022;-79
2024/04/12 13:07:44;;;;;;;0.00;0.00;;;22.10;99.90;;;;;;5457712;26;20022;-79
2024/04/12 13:10:12;;;;;;;1.17;0.10;;;22.10;99.90;;;;;;5457797;26;20040;-79
2024/04/12 13:12:38;;;;;;;0.80;0.10;;;22.00;99.90;;;;;;5456317;26;19995;-79
2024/04/12 13:15:11;;;;;;;1.23;0.00;;;21.90;99.90;;;;;;5457580;26;19994;-79
2024/04/12 13:17:37;;;;;;;1.08;0.00;;;21.80;99.90;;;;;;5458555;26;20011;-79
2024/04/12 13:20:06;;;;;;;0.93;0.00;;;21.60;99.90;;;;;;5458364;26;20052;-79
2024/04/12 13:22:32;;;;;;;1.27;0.03;;;;;;;;;;5456050;26;20362;-79
2024/04/12 13:25:01;;;;;;;0.85;0.10;;;21.20;99.90;;;;;;5459460;26;19999;-79
2024/04/12 13:27:29;;;;;;;1.17;0.00;;;21.20;99.90;;;;;;5457011;26;19998;-79
2024/04/12 13:29:55;;;;;;;0.10;0.10;;;21.10;99.90;;;;;;5457504;26;19995;-79
2024/04/12 13:32:21;;;;;;;0.00;0.00;;;21.20;99.90;;;;;;5456298;26;20007;-79
2024/04/12 13:34:47;;;;;;;1.13;0.00;;;21.40;99.90;;;;;;5457022;26;20048;-79
2024/04/12 13:37:14;;;;;;;1.67;0.00;;;21.60;99.90;;;;;;5457417;26;19995;-79
2024/04/12 13:39:40;;;;;;;2.30;0.22;;;21.60;99.90;;;;;;5457510;26;19995;-79
2024/04/12 13:42:12;;;;;;;1.05;0.00;;;21.80;99.90;;;;;;5457523;26;20458;-79
2024/04/12 13:52:53;;;;;;;2.60;0.00;;;23.10;99.90;;;;;;5459133;26;20074;-79
2024/04/12 13:55:22;;;;;;;0.30;0.10;;;23.20;99.90;;;;;;5457585;26;20439;-79
2024/04/12 13:57:48;;;;;;;0.80;0.00;;;23.50;99.90;;;;;;5456431;26;20006;-79
2024/04/12 14:00:27;;;;;;;0.85;0.10;;;23.10;99.90;;;;;;5457199;26;20354;-79
2024/04/12 14:02:54;;;;;;;0.50;0.00;;;22.70;99.90;;;;;;5456611;26;20010;-79
2024/04/12 14:05:20;;;;;;;0.45;0.10;;;22.60;99.90;;;;;;5456719;26;20029;-79
2024/04/12 14:07:49;;;;;;;0.35;0.00;;;22.50;99.90;;;;;;5457057;26;19994;-78
2024/04/12 14:10:20;;;;;;;2.35;0.00;;;22.20;99.90;;;;;;5454617;26;20334;-78
2024/04/12 14:12:49;;;;;;;0.20;0.00;;;22.10;99.90;;;;;;5455108;26;20068;-79
2024/04/12 14:15:17;;;;;;;0.00;0.00;;;22.10;99.90;;;;;;5457497;26;20100;-79
2024/04/12 14:17:43;;;;;;;1.77;0.03;;;22.10;99.90;;;;;;5456284;26;20037;-79
2024/04/12 14:20:12;;;;;;;0.10;0.00;;;22.00;99.90;;;;;;5454925;26;19990;-79
2024/04/12 14:22:39;;;;;;;1.98;0.00;;;22.20;99.90;;;;;;5454707;26;19994;-79
2024/04/12 14:25:05;;;;;;;0.65;0.00;;;22.20;99.90;;;;;;5454336;26;20011;-79
2024/04/12 14:27:31;;;;;;;0.52;0.10;;;22.50;99.90;;;;;;5455165;26;20021;-79